createdAt,value
2023-03-06T00:09:47.494Z,5.22
2023-03-06T00:20:10.886Z,5.45
2023-03-06T00:30:32.133Z,5.03
2023-03-06T00:40:53.495Z,5.65
2023-03-06T00:51:17.419Z,4.85
2023-03-06T01:01:38.352Z,7.68
2023-03-06T01:11:59.604Z,5.82
2023-03-06T01:22:21.821Z,6.03
2023-03-06T01:32:43.180Z,6.72
2023-03-06T01:43:26.382Z,5.55
2023-03-06T01:53:48.263Z,6.60
2023-03-06T02:04:10.330Z,6.63
2023-03-06T02:14:31.333Z,9.10
2023-03-06T02:25:08.116Z,6.13
2023-03-06T02:35:31.812Z,6.75
2023-03-06T02:45:53.172Z,6.20
2023-03-06T02:56:15.377Z,6.40
2023-03-06T03:06:37.081Z,5.78
2023-03-06T03:16:59.794Z,5.65
2023-03-06T03:27:21.561Z,5.72
2023-03-06T03:37:42.910Z,8.73
2023-03-06T03:48:04.749Z,9.05
2023-03-06T03:58:26.318Z,8.15
2023-03-06T04:08:48.030Z,7.70
2023-03-06T04:19:12.034Z,7.78
2023-03-06T04:29:35.085Z,9.70
2023-03-06T04:39:57.180Z,8.02
2023-03-06T04:50:19.714Z,10.48
2023-03-06T05:00:40.976Z,8.18
2023-03-06T05:11:03.882Z,9.40
2023-03-06T05:21:25.198Z,9.77
2023-03-06T05:31:46.523Z,11.00
2023-03-06T05:42:08.155Z,9.70
2023-03-06T05:52:29.582Z,9.23
2023-03-06T06:02:50.781Z,8.52
2023-03-06T06:13:12.170Z,11.27
2023-03-06T06:23:33.314Z,8.77
2023-03-06T06:33:54.336Z,8.77
2023-03-06T06:44:16.366Z,7.75
2023-03-06T06:54:37.481Z,8.23
2023-03-06T07:05:05.943Z,10.15
2023-03-06T07:15:30.024Z,11.35
2023-03-06T07:25:51.344Z,12.10
2023-03-06T07:36:13.840Z,13.00
2023-03-06T07:46:35.854Z,10.75
2023-03-06T07:56:57.214Z,8.20
2023-03-06T08:07:18.137Z,12.10
2023-03-06T08:17:39.734Z,11.60
2023-03-06T08:28:01.139Z,11.52
2023-03-06T08:38:22.546Z,11.48
2023-03-06T08:48:44.004Z,9.43
2023-03-06T08:59:06.532Z,9.10
2023-03-06T09:09:28.134Z,9.93
2023-03-06T09:19:50.785Z,11.82
2023-03-06T09:30:12.522Z,8.85
2023-03-06T09:40:57.785Z,10.05
2023-03-06T09:51:22.434Z,11.20
2023-03-06T10:01:46.594Z,10.05
2023-03-06T10:12:28.857Z,10.38
2023-03-06T10:23:05.162Z,9.10
2023-03-06T10:34:09.282Z,7.87
2023-03-06T10:44:30.841Z,12.13
2023-03-06T10:54:52.314Z,10.55
2023-03-06T11:05:20.800Z,10.88
2023-03-06T11:15:56.642Z,6.88
2023-03-06T11:26:18.025Z,9.93
2023-03-06T11:36:40.483Z,9.82
2023-03-06T11:47:19.769Z,8.45
2023-03-06T11:57:53.161Z,9.13
2023-03-06T12:08:22.648Z,7.75
2023-03-06T12:18:55.751Z,8.02
2023-03-06T12:29:25.653Z,9.13
2023-03-06T12:39:49.458Z,9.60
2023-03-06T12:50:25.580Z,8.65
2023-03-06T13:01:03.572Z,11.03
2023-03-06T13:11:30.957Z,8.55
2023-03-06T13:21:55.221Z,9.55
2023-03-06T13:32:19.257Z,8.65
2023-03-06T13:42:43.636Z,10.00
2023-03-06T13:53:27.426Z,9.98
2023-03-06T14:04:00.419Z,9.82
2023-03-06T14:14:33.368Z,9.07
2023-03-06T14:24:58.085Z,10.18
2023-03-06T14:35:31.815Z,8.80
2023-03-06T14:45:55.886Z,10.10
2023-03-06T14:56:22.463Z,9.57
2023-03-06T15:06:44.399Z,8.13
2023-03-06T15:17:17.731Z,10.15
2023-03-06T15:27:39.115Z,9.88
2023-03-06T15:38:01.292Z,10.48
2023-03-06T15:48:22.392Z,9.18
2023-03-06T15:58:43.894Z,10.23
2023-03-06T16:09:06.036Z,9.25
2023-03-06T16:19:28.022Z,7.30
2023-03-06T16:29:49.406Z,8.13
2023-03-06T16:40:23.683Z,6.60
2023-03-06T16:50:45.171Z,9.68
2023-03-06T17:01:07.456Z,6.30
2023-03-06T17:11:28.820Z,7.03
2023-03-06T17:21:50.517Z,7.13
2023-03-06T17:32:11.801Z,6.13
2023-03-06T17:42:32.936Z,7.10
2023-03-06T17:52:54.334Z,7.18
2023-03-06T18:03:15.987Z,8.48
2023-03-06T18:13:40.211Z,7.72
2023-03-06T18:24:01.314Z,8.27
2023-03-06T18:34:23.001Z,6.50
2023-03-06T18:44:47.821Z,9.68
2023-03-06T18:55:10.180Z,8.48
2023-03-06T19:05:31.557Z,6.95
2023-03-06T19:15:56.969Z,8.85
2023-03-06T19:26:21.492Z,8.00
2023-03-06T19:36:42.910Z,7.35
2023-03-06T19:47:03.876Z,7.20
2023-03-06T19:57:25.024Z,8.98
2023-03-06T20:07:46.380Z,8.05
2023-03-06T20:18:07.422Z,5.78
2023-03-06T20:28:28.917Z,9.10
2023-03-06T20:38:50.168Z,7.68
2023-03-06T20:49:12.411Z,7.65
2023-03-06T20:59:33.901Z,9.13
2023-03-06T21:09:55.290Z,8.02
2023-03-06T21:20:16.423Z,10.25
2023-03-06T21:30:37.536Z,8.18
2023-03-06T21:41:19.168Z,8.35
2023-03-06T21:51:40.365Z,9.98
2023-03-06T22:02:01.703Z,10.07
2023-03-06T22:12:22.614Z,8.90
2023-03-06T22:22:44.080Z,10.20
2023-03-06T22:33:05.225Z,10.95
2023-03-06T22:43:26.206Z,11.63
2023-03-06T22:53:48.773Z,11.35
2023-03-06T23:04:11.495Z,11.73
2023-03-06T23:14:33.119Z,12.15
2023-03-06T23:25:13.503Z,11.70
2023-03-06T23:35:36.733Z,12.35
2023-03-06T23:45:58.434Z,11.40
2023-03-06T23:56:19.690Z,12.98
